createdAt,value
2022-10-09T00:01:30.968Z,100469.00
2022-10-09T00:04:00.723Z,100466.00
2022-10-09T00:06:32.518Z,100468.00
2022-10-09T00:09:02.133Z,100471.00
2022-10-09T00:11:32.583Z,100467.00
2022-10-09T00:14:02.857Z,100473.00
2022-10-09T00:16:31.574Z,100466.00
2022-10-09T00:19:00.180Z,100462.00
2022-10-09T00:21:31.400Z,100464.00
2022-10-09T00:24:02.232Z,100467.00
2022-10-09T00:26:30.790Z,100453.00
2022-10-09T00:28:59.275Z,100466.00
2022-10-09T00:31:29.090Z,100465.00
2022-10-09T00:33:57.684Z,100459.00
2022-10-09T00:36:27.638Z,100460.00
2022-10-09T00:38:56.755Z,100472.00
2022-10-09T00:41:29.515Z,100469.00
2022-10-09T00:44:01.420Z,100475.00
2022-10-09T00:46:37.352Z,100478.00
2022-10-09T00:49:15.965Z,100482.00
2022-10-09T00:51:47.840Z,100455.00
2022-10-09T00:54:20.826Z,100483.00
2022-10-09T00:56:49.900Z,100478.00
2022-10-09T00:59:18.861Z,100476.00
2022-10-09T01:01:48.437Z,100473.00
2022-10-09T01:04:16.761Z,100468.00
2022-10-09T01:07:02.574Z,100473.00
2022-10-09T01:09:40.719Z,100463.00
2022-10-09T01:12:20.667Z,100472.00
2022-10-09T01:15:00.918Z,100466.00
2022-10-09T01:17:38.706Z,100468.00
2022-10-09T01:20:30.569Z,100436.00
2022-10-09T01:23:38.159Z,100471.00
2022-10-09T01:26:33.624Z,100467.00
2022-10-09T01:29:08.198Z,100473.00
2022-10-09T01:31:42.554Z,100461.00
2022-10-09T01:34:14.497Z,100480.00
2022-10-09T01:36:45.690Z,100483.00
2022-10-09T01:39:19.132Z,100473.00
2022-10-09T01:41:49.411Z,100476.00
2022-10-09T01:44:22.790Z,100488.00
2022-10-09T01:46:51.007Z,100456.00
2022-10-09T01:49:34.092Z,100483.00
2022-10-09T01:52:12.258Z,100485.00
2022-10-09T01:54:55.027Z,100481.00
2022-10-09T01:57:29.886Z,100491.00
2022-10-09T02:00:05.554Z,100484.00
2022-10-09T02:02:42.844Z,100486.00
2022-10-09T02:05:14.323Z,100488.00
2022-10-09T02:07:42.593Z,100494.00
2022-10-09T02:10:11.579Z,100487.00
2022-10-09T02:12:45.072Z,100481.00
2022-10-09T02:15:16.195Z,100492.00
2022-10-09T02:17:50.509Z,100488.00
2022-10-09T02:20:26.104Z,100488.00
2022-10-09T02:22:57.363Z,100494.00
2022-10-09T02:25:26.087Z,100491.00
2022-10-09T02:27:54.160Z,100498.00
2022-10-09T02:30:29.882Z,100496.00
2022-10-09T02:32:58.436Z,100497.00
2022-10-09T02:35:26.501Z,100506.00
2022-10-09T02:37:54.510Z,100508.00
2022-10-09T02:40:22.517Z,100503.00
2022-10-09T02:42:50.745Z,100509.00
2022-10-09T02:45:19.077Z,100505.00
2022-10-09T02:47:48.446Z,100509.00
2022-10-09T02:50:16.532Z,100508.00
2022-10-09T02:52:44.536Z,100511.00
2022-10-09T02:55:12.537Z,100508.00
2022-10-09T02:57:40.655Z,100514.00
2022-10-09T03:00:10.508Z,100508.00
2022-10-09T03:02:38.638Z,100521.00
2022-10-09T03:05:09.584Z,100516.00
2022-10-09T03:07:37.682Z,100524.00
2022-10-09T03:10:06.623Z,100523.00
2022-10-09T03:12:34.647Z,100518.00
2022-10-09T03:15:02.691Z,100516.00
2022-10-09T03:17:30.735Z,100526.00
2022-10-09T03:19:58.746Z,100524.00
2022-10-09T03:22:28.809Z,100520.00
2022-10-09T03:24:56.844Z,100527.00
2022-10-09T03:27:24.851Z,100532.00
2022-10-09T03:29:52.873Z,100539.00
2022-10-09T03:32:21.034Z,100540.00
2022-10-09T03:34:49.108Z,100543.00
2022-10-09T03:37:17.262Z,100539.00
2022-10-09T03:39:46.651Z,100542.00
2022-10-09T03:42:14.874Z,100541.00
2022-10-09T03:44:42.895Z,100546.00
2022-10-09T03:47:10.961Z,100537.00
2022-10-09T03:49:38.967Z,100543.00
2022-10-09T03:52:07.037Z,100551.00
2022-10-09T03:54:35.194Z,100558.00
2022-10-09T03:57:04.620Z,100549.00
2022-10-09T03:59:32.641Z,100555.00
2022-10-09T04:02:00.664Z,100560.00
2022-10-09T04:04:28.665Z,100549.00
2022-10-09T04:06:56.760Z,100556.00
2022-10-09T04:09:24.810Z,100560.00
2022-10-09T04:11:53.468Z,100549.00
2022-10-09T04:14:22.847Z,100550.00
2022-10-09T04:16:50.868Z,100566.00
2022-10-09T04:19:18.890Z,100550.00
2022-10-09T04:21:46.885Z,100551.00
2022-10-09T04:24:14.947Z,100554.00
2022-10-09T04:26:42.982Z,100557.00
2022-10-09T04:29:11.845Z,100558.00
2022-10-09T04:31:41.272Z,100553.00
2022-10-09T04:34:09.405Z,100556.00
2022-10-09T04:36:37.543Z,100558.00
2022-10-09T04:39:06.007Z,100556.00
2022-10-09T04:41:38.139Z,100551.00
2022-10-09T04:44:06.652Z,100558.00
2022-10-09T04:46:34.797Z,100558.00
2022-10-09T04:49:04.617Z,100553.00
2022-10-09T04:51:32.814Z,100556.00
2022-10-09T04:54:00.993Z,100553.00
2022-10-09T04:56:29.160Z,100550.00
2022-10-09T04:58:57.366Z,100554.00
2022-10-09T05:01:28.247Z,100555.00
2022-10-09T05:03:57.178Z,100554.00
2022-10-09T05:06:26.894Z,100561.00
2022-10-09T05:08:55.699Z,100563.00
2022-10-09T05:11:26.218Z,100561.00
2022-10-09T05:13:57.211Z,100563.00
2022-10-09T05:16:28.136Z,100548.00
2022-10-09T05:18:58.847Z,100564.00
2022-10-09T05:21:29.956Z,100562.00
2022-10-09T05:23:59.046Z,100562.00
2022-10-09T05:26:28.413Z,100563.00
2022-10-09T05:28:56.791Z,100572.00
2022-10-09T05:31:27.845Z,100579.00
2022-10-09T05:33:57.007Z,100579.00
2022-10-09T05:36:25.250Z,100579.00
2022-10-09T05:38:54.632Z,100575.00
2022-10-09T05:41:22.650Z,100573.00
2022-10-09T05:43:51.277Z,100575.00
2022-10-09T05:46:23.350Z,100580.00
2022-10-09T05:48:56.030Z,100576.00
2022-10-09T05:51:26.695Z,100571.00
2022-10-09T05:53:57.617Z,100582.00
2022-10-09T05:56:28.087Z,100578.00
2022-10-09T05:58:58.346Z,100573.00
2022-10-09T06:01:29.827Z,100573.00
2022-10-09T06:04:00.144Z,100593.00
2022-10-09T06:06:32.269Z,100596.00
2022-10-09T06:09:01.646Z,100580.00
2022-10-09T06:11:33.522Z,100589.00
2022-10-09T06:14:04.506Z,100599.00
2022-10-09T06:16:35.788Z,100587.00
2022-10-09T06:19:06.288Z,100592.00
2022-10-09T06:21:36.087Z,100601.00
2022-10-09T06:24:06.832Z,100609.00
2022-10-09T06:26:35.716Z,100604.00
2022-10-09T06:29:04.468Z,100602.00
2022-10-09T06:31:34.438Z,100613.00
2022-10-09T06:34:04.770Z,100619.00
2022-10-09T06:36:36.569Z,100616.00
2022-10-09T06:39:08.232Z,100621.00
2022-10-09T06:41:37.083Z,100622.00
2022-10-09T06:44:19.148Z,100615.00
2022-10-09T06:46:50.620Z,100620.00
2022-10-09T06:49:19.790Z,100617.00
2022-10-09T06:51:48.122Z,100625.00
2022-10-09T06:54:17.658Z,100628.00
2022-10-09T06:56:46.256Z,100626.00
2022-10-09T06:59:14.678Z,100626.00
2022-10-09T07:01:42.786Z,100632.00
2022-10-09T07:04:14.500Z,100633.00
2022-10-09T07:06:46.773Z,100640.00
2022-10-09T07:09:17.523Z,100637.00
2022-10-09T07:11:49.069Z,100647.00
2022-10-09T07:14:17.801Z,100652.00
2022-10-09T07:16:48.867Z,100653.00
2022-10-09T07:19:19.035Z,100646.00
2022-10-09T07:21:49.849Z,100645.00
2022-10-09T07:24:20.710Z,100648.00
2022-10-09T07:26:49.696Z,100651.00
2022-10-09T07:29:19.995Z,100653.00
2022-10-09T07:31:49.776Z,100655.00
2022-10-09T07:34:17.828Z,100657.00
2022-10-09T07:36:45.825Z,100664.00
2022-10-09T07:39:13.989Z,100660.00
2022-10-09T07:41:44.026Z,100655.00
2022-10-09T07:44:12.298Z,100659.00
2022-10-09T07:46:40.438Z,100653.00
2022-10-09T07:49:08.563Z,100655.00
2022-10-09T07:51:36.882Z,100658.00
2022-10-09T07:54:05.308Z,100655.00
2022-10-09T07:56:37.859Z,100662.00
2022-10-09T07:59:12.380Z,100665.00
2022-10-09T08:01:40.732Z,100658.00
2022-10-09T08:04:09.162Z,100660.00
2022-10-09T08:06:37.394Z,100652.00
2022-10-09T08:09:08.192Z,100655.00
2022-10-09T08:11:40.431Z,100657.00
2022-10-09T08:14:18.793Z,100660.00
2022-10-09T08:16:47.411Z,100663.00
2022-10-09T08:19:15.502Z,100662.00
2022-10-09T08:21:43.563Z,100659.00
2022-10-09T08:24:12.786Z,100653.00
2022-10-09T08:26:40.991Z,100656.00
2022-10-09T08:29:13.782Z,100641.00
2022-10-09T08:31:41.839Z,100650.00
2022-10-09T08:34:11.996Z,100655.00
2022-10-09T08:36:40.126Z,100654.00
2022-10-09T08:39:08.217Z,100652.00
2022-10-09T08:41:44.347Z,100657.00
2022-10-09T08:44:19.931Z,100658.00
2022-10-09T08:47:01.949Z,100658.00
2022-10-09T08:49:42.361Z,100662.00
2022-10-09T08:52:26.143Z,100655.00
2022-10-09T08:54:59.206Z,100650.00
2022-10-09T08:57:33.566Z,100656.00
2022-10-09T09:00:03.026Z,100655.00
2022-10-09T09:02:50.173Z,100657.00
2022-10-09T09:05:33.958Z,100661.00
2022-10-09T09:08:17.162Z,100650.00
2022-10-09T09:10:53.867Z,100655.00
2022-10-09T09:13:46.676Z,100659.00
2022-10-09T09:16:29.493Z,100675.00
2022-10-09T09:19:22.729Z,100656.00
2022-10-09T09:21:53.589Z,100655.00
2022-10-09T09:24:33.111Z,100654.00
2022-10-09T09:27:05.591Z,100652.00
2022-10-09T09:29:43.678Z,100648.00
2022-10-09T09:32:22.491Z,100648.00
2022-10-09T09:34:51.429Z,100637.00
2022-10-09T09:37:19.444Z,100644.00
2022-10-09T09:42:35.665Z,100634.00
2022-10-09T09:45:11.936Z,100605.00
2022-10-09T09:47:46.711Z,100634.00
2022-10-09T09:50:42.374Z,100641.00
2022-10-09T09:53:12.543Z,100623.00
2022-10-09T09:55:40.925Z,100626.00
2022-10-09T09:58:17.369Z,100629.00
2022-10-09T10:00:55.761Z,100626.00
2022-10-09T10:03:26.327Z,100624.00
2022-10-09T10:05:55.244Z,100620.00
2022-10-09T10:08:26.884Z,100623.00
2022-10-09T10:10:58.308Z,100625.00
2022-10-09T10:13:35.705Z,100620.00
2022-10-09T10:16:05.199Z,100618.00
2022-10-09T10:18:44.605Z,100619.00
2022-10-09T10:21:16.355Z,100622.00
2022-10-09T10:23:50.932Z,100623.00
2022-10-09T10:26:27.865Z,100610.00
2022-10-09T10:29:02.793Z,100608.00
2022-10-09T10:31:55.570Z,100600.00
2022-10-09T10:34:31.756Z,100602.00
2022-10-09T10:37:13.995Z,100595.00
2022-10-09T10:39:50.058Z,100603.00
2022-10-09T10:42:25.824Z,100597.00
2022-10-09T10:45:03.931Z,100588.00
2022-10-09T10:47:40.852Z,100591.00
2022-10-09T10:50:16.388Z,100581.00
2022-10-09T10:53:02.403Z,100571.00
2022-10-09T10:55:51.882Z,100572.00
2022-10-09T10:58:30.318Z,100580.00
2022-10-09T11:01:26.666Z,100571.00
2022-10-09T11:04:40.252Z,100554.00
2022-10-09T11:07:26.257Z,100559.00
2022-10-09T11:10:03.838Z,100552.00
2022-10-09T11:12:48.424Z,100553.00
2022-10-09T11:15:27.788Z,100552.00
2022-10-09T11:18:12.523Z,100546.00
2022-10-09T11:21:05.482Z,100537.00
2022-10-09T11:23:56.959Z,100533.00
2022-10-09T11:26:39.466Z,100528.00
2022-10-09T11:29:16.623Z,100511.00
2022-10-09T11:31:53.353Z,100522.00
2022-10-09T11:34:27.358Z,100520.00
2022-10-09T11:36:57.707Z,100518.00
2022-10-09T11:39:33.459Z,100467.00
2022-10-09T11:42:02.325Z,100512.00
2022-10-09T11:44:45.411Z,100502.00
2022-10-09T11:47:24.251Z,100491.00
2022-10-09T11:50:24.378Z,100487.00
2022-10-09T11:53:03.083Z,100490.00
2022-10-09T11:55:34.684Z,100493.00
2022-10-09T11:58:15.016Z,100477.00
2022-10-09T12:00:43.816Z,100481.00
2022-10-09T12:03:30.027Z,100470.00
2022-10-09T12:06:08.203Z,100467.00
2022-10-09T12:08:37.547Z,100466.00
2022-10-09T12:11:17.461Z,100426.00
2022-10-09T12:13:51.760Z,100460.00
2022-10-09T12:16:43.411Z,100458.00
2022-10-09T12:19:26.580Z,100444.00
2022-10-09T12:22:04.448Z,100445.00
2022-10-09T12:24:40.187Z,100444.00
2022-10-09T12:27:18.464Z,100440.00
2022-10-09T12:29:53.117Z,100447.00
2022-10-09T12:32:30.262Z,100439.00
2022-10-09T12:34:59.296Z,100433.00
2022-10-09T12:37:35.443Z,100396.00
2022-10-09T12:40:15.211Z,100430.00
2022-10-09T12:42:46.580Z,100427.00
2022-10-09T12:45:21.853Z,100418.00
2022-10-09T12:47:50.545Z,100413.00
2022-10-09T12:50:26.947Z,100413.00
2022-10-09T12:52:59.191Z,100410.00
2022-10-09T12:55:30.309Z,100402.00
2022-10-09T12:58:05.969Z,100392.00
2022-10-09T13:00:35.960Z,100402.00
2022-10-09T13:03:04.236Z,100399.00
2022-10-09T13:05:40.088Z,100369.00
2022-10-09T13:08:24.737Z,100391.00
2022-10-09T13:10:53.859Z,100397.00
2022-10-09T13:13:28.297Z,100341.00
2022-10-09T13:16:03.023Z,100378.00
2022-10-09T13:18:31.296Z,100381.00
2022-10-09T13:21:02.535Z,100378.00
2022-10-09T13:23:34.108Z,100364.00
2022-10-09T13:26:05.554Z,100350.00
2022-10-09T13:28:35.309Z,100364.00
2022-10-09T13:31:08.434Z,100364.00
2022-10-09T13:33:36.621Z,100361.00
2022-10-09T13:36:05.045Z,100365.00
2022-10-09T13:38:35.148Z,100357.00
2022-10-09T13:41:03.880Z,100359.00
2022-10-09T13:43:32.343Z,100357.00
2022-10-09T13:46:01.892Z,100361.00
2022-10-09T13:48:31.223Z,100360.00
2022-10-09T13:50:59.823Z,100355.00
2022-10-09T13:53:28.595Z,100343.00
2022-10-09T13:56:00.723Z,100337.00
2022-10-09T13:58:29.690Z,100343.00
2022-10-09T14:00:58.219Z,100350.00
2022-10-09T14:03:27.829Z,100322.00
2022-10-09T14:05:59.994Z,100333.00
2022-10-09T14:08:28.276Z,100347.00
2022-10-09T14:10:56.505Z,100332.00
2022-10-09T14:13:24.822Z,100335.00
2022-10-09T14:15:53.092Z,100319.00
2022-10-09T14:18:21.525Z,100301.00
2022-10-09T14:20:50.920Z,100321.00
2022-10-09T14:23:18.999Z,100316.00
2022-10-09T14:25:47.086Z,100315.00
2022-10-09T14:28:15.283Z,100307.00
2022-10-09T14:30:47.211Z,100309.00
2022-10-09T14:33:15.407Z,100301.00
2022-10-09T14:35:43.464Z,100287.00
2022-10-09T14:38:13.152Z,100298.00
2022-10-09T14:40:44.027Z,100303.00
2022-10-09T14:43:12.721Z,100249.00
2022-10-09T14:45:40.909Z,100282.00
2022-10-09T14:48:09.016Z,100287.00
2022-10-09T14:50:37.464Z,100285.00
2022-10-09T14:53:05.746Z,100283.00
2022-10-09T14:55:37.084Z,100273.00
2022-10-09T14:58:05.360Z,100284.00
2022-10-09T15:00:33.569Z,100282.00
2022-10-09T15:03:03.085Z,100275.00
2022-10-09T15:05:31.319Z,100264.00
2022-10-09T15:07:59.321Z,100275.00
2022-10-09T15:10:27.891Z,100273.00
2022-10-09T15:12:57.540Z,100265.00
2022-10-09T15:15:30.338Z,100268.00
2022-10-09T15:18:00.521Z,100270.00
2022-10-09T15:20:28.845Z,100268.00
2022-10-09T15:22:57.017Z,100264.00
2022-10-09T15:25:25.651Z,100261.00
2022-10-09T15:27:54.887Z,100251.00
2022-10-09T15:30:24.940Z,100231.00
2022-10-09T15:32:53.346Z,100255.00
2022-10-09T15:35:22.025Z,100257.00
2022-10-09T15:37:53.835Z,100254.00
2022-10-09T15:40:24.002Z,100256.00
2022-10-09T15:42:52.575Z,100255.00
2022-10-09T15:45:21.210Z,100245.00
2022-10-09T15:47:53.208Z,100245.00
2022-10-09T15:50:21.364Z,100247.00
2022-10-09T15:52:49.746Z,100253.00
2022-10-09T15:55:20.393Z,100246.00
2022-10-09T15:57:48.806Z,100239.00
2022-10-09T16:00:17.499Z,100248.00
2022-10-09T16:02:52.674Z,100262.00
2022-10-09T16:05:22.429Z,100252.00
2022-10-09T16:07:52.650Z,100252.00
2022-10-09T16:10:21.565Z,100242.00
2022-10-09T16:12:50.729Z,100247.00
2022-10-09T16:15:19.315Z,100246.00
2022-10-09T16:17:48.775Z,100250.00
2022-10-09T16:20:18.507Z,100246.00
2022-10-09T16:22:46.853Z,100251.00
2022-10-09T16:25:15.345Z,100243.00
2022-10-09T16:27:43.485Z,100244.00
2022-10-09T16:30:14.335Z,100241.00
2022-10-09T16:32:43.471Z,100236.00
2022-10-09T16:35:11.526Z,100233.00
2022-10-09T16:37:40.996Z,100244.00
2022-10-09T16:40:10.025Z,100243.00
2022-10-09T16:42:38.336Z,100245.00
2022-10-09T16:45:08.777Z,100236.00
2022-10-09T16:47:37.209Z,100237.00
2022-10-09T16:50:06.325Z,100237.00
2022-10-09T16:52:34.641Z,100233.00
2022-10-09T16:55:05.116Z,100228.00
2022-10-09T16:57:33.394Z,100229.00
2022-10-09T17:00:03.630Z,100225.00
2022-10-09T17:02:32.417Z,100229.00
2022-10-09T17:05:00.980Z,100224.00
2022-10-09T17:07:30.305Z,100231.00
2022-10-09T17:09:58.429Z,100227.00
2022-10-09T17:12:28.320Z,100226.00
2022-10-09T17:14:56.508Z,100236.00
2022-10-09T17:17:24.710Z,100232.00
2022-10-09T17:19:53.510Z,100235.00
2022-10-09T17:22:21.613Z,100237.00
2022-10-09T17:24:50.395Z,100233.00
2022-10-09T17:27:18.603Z,100230.00
2022-10-09T17:29:48.266Z,100229.00
2022-10-09T17:32:16.371Z,100229.00
2022-10-09T17:34:45.895Z,100236.00
2022-10-09T17:37:14.321Z,100230.00
2022-10-09T17:39:45.568Z,100232.00
2022-10-09T17:42:15.628Z,100227.00
2022-10-09T17:44:43.697Z,100234.00
2022-10-09T17:47:13.210Z,100239.00
2022-10-09T17:49:41.314Z,100228.00
2022-10-09T17:52:09.483Z,100225.00
2022-10-09T17:54:37.558Z,100202.00
2022-10-09T17:57:07.099Z,100243.00
2022-10-09T17:59:35.398Z,100235.00
2022-10-09T18:02:03.559Z,100225.00
2022-10-09T18:04:32.999Z,100231.00
2022-10-09T18:07:01.138Z,100236.00
2022-10-09T18:09:29.229Z,100219.00
2022-10-09T18:11:57.477Z,100225.00
2022-10-09T18:14:25.657Z,100231.00
2022-10-09T18:16:53.878Z,100230.00
2022-10-09T18:19:22.397Z,100225.00
2022-10-09T18:21:52.113Z,100226.00
2022-10-09T18:24:20.287Z,100219.00
2022-10-09T18:26:48.420Z,100214.00
2022-10-09T18:29:16.659Z,100223.00
2022-10-09T18:31:44.749Z,100218.00
2022-10-09T18:34:13.105Z,100219.00
2022-10-09T18:36:41.228Z,100217.00
2022-10-09T18:39:14.552Z,100218.00
2022-10-09T18:41:43.666Z,100214.00
2022-10-09T18:44:18.223Z,100216.00
2022-10-09T18:46:50.412Z,100208.00
2022-10-09T18:49:22.051Z,100217.00
2022-10-09T18:51:50.906Z,100215.00
2022-10-09T18:54:23.657Z,100215.00
2022-10-09T18:56:52.702Z,100226.00
2022-10-09T18:59:23.712Z,100208.00
2022-10-09T19:01:52.142Z,100215.00
2022-10-09T19:04:20.621Z,100208.00
2022-10-09T19:06:49.210Z,100204.00
2022-10-09T19:09:17.438Z,100207.00
2022-10-09T19:11:46.958Z,100199.00
2022-10-09T19:14:15.883Z,100196.00
2022-10-09T19:16:43.971Z,100195.00
2022-10-09T19:19:12.630Z,100193.00
2022-10-09T19:21:43.854Z,100193.00
2022-10-09T19:24:14.003Z,100196.00
2022-10-09T19:26:43.029Z,100185.00
2022-10-09T19:29:12.821Z,100186.00
2022-10-09T19:31:40.949Z,100177.00
2022-10-09T19:34:09.877Z,100182.00
2022-10-09T19:36:37.991Z,100179.00
2022-10-09T19:39:09.182Z,100174.00
2022-10-09T19:41:38.792Z,100180.00
2022-10-09T19:44:06.984Z,100167.00
2022-10-09T19:46:38.915Z,100165.00
2022-10-09T19:49:08.209Z,100163.00
2022-10-09T19:51:38.105Z,100155.00
2022-10-09T19:54:09.315Z,100161.00
2022-10-09T19:56:39.110Z,100157.00
2022-10-09T19:59:09.625Z,100152.00
2022-10-09T20:01:40.399Z,100157.00
2022-10-09T20:04:11.235Z,100146.00
2022-10-09T20:06:41.021Z,100146.00
2022-10-09T20:09:11.403Z,100144.00
2022-10-09T20:11:39.738Z,100128.00
2022-10-09T20:14:09.264Z,100131.00
2022-10-09T20:16:39.113Z,100129.00
2022-10-09T20:19:08.092Z,100128.00
2022-10-09T20:21:36.503Z,100120.00
2022-10-09T20:24:06.059Z,100129.00
2022-10-09T20:26:34.196Z,100130.00
2022-10-09T20:29:03.305Z,100117.00
2022-10-09T20:31:31.466Z,100119.00
2022-10-09T20:34:00.961Z,100115.00
2022-10-09T20:36:33.449Z,100107.00
2022-10-09T20:39:05.319Z,100102.00
2022-10-09T20:41:34.583Z,100107.00
2022-10-09T20:44:04.749Z,100100.00
2022-10-09T20:46:36.162Z,100099.00
2022-10-09T20:49:11.261Z,100103.00
2022-10-09T20:51:41.398Z,100098.00
2022-10-09T20:54:16.320Z,100105.00
2022-10-09T20:56:45.559Z,100089.00
2022-10-09T20:59:14.975Z,100086.00
2022-10-09T21:01:44.673Z,100081.00
2022-10-09T21:04:14.854Z,100085.00
2022-10-09T21:06:43.661Z,100096.00
2022-10-09T21:09:11.755Z,100083.00
2022-10-09T21:11:41.434Z,100087.00
2022-10-09T21:14:11.501Z,100088.00
2022-10-09T21:16:39.767Z,100089.00
2022-10-09T21:19:08.129Z,100025.00
2022-10-09T21:21:37.741Z,100083.00
2022-10-09T21:24:06.578Z,100075.00
2022-10-09T21:26:35.850Z,100073.00
2022-10-09T21:29:06.119Z,100065.00
2022-10-09T21:31:34.854Z,100084.00
2022-10-09T21:34:03.731Z,100075.00
2022-10-09T21:36:51.152Z,100069.00
2022-10-09T21:39:27.932Z,100060.00
2022-10-09T21:41:56.752Z,100073.00
2022-10-09T21:44:25.119Z,100065.00
2022-10-09T21:46:53.347Z,100064.00
2022-10-09T21:49:25.810Z,100053.00
2022-10-09T21:51:55.642Z,100048.00
2022-10-09T21:54:24.452Z,100049.00
2022-10-09T21:56:52.654Z,100043.00
2022-10-09T21:59:20.816Z,100037.00
2022-10-09T22:01:48.862Z,100048.00
2022-10-09T22:04:17.040Z,100041.00
2022-10-09T22:06:45.423Z,100035.00
2022-10-09T22:09:15.027Z,100030.00
2022-10-09T22:11:44.381Z,100037.00
2022-10-09T22:14:13.207Z,100029.00
2022-10-09T22:16:41.387Z,100022.00
2022-10-09T22:19:09.578Z,100021.00
2022-10-09T22:21:38.183Z,100018.00
2022-10-09T22:24:06.638Z,100025.00
2022-10-09T22:26:36.639Z,100027.00
2022-10-09T22:29:05.091Z,100027.00
2022-10-09T22:31:33.189Z,100020.00
2022-10-09T22:34:03.491Z,100017.00
2022-10-09T22:36:34.465Z,100015.00
2022-10-09T22:39:07.080Z,100016.00
2022-10-09T22:41:37.134Z,99966.00
2022-10-09T22:44:08.404Z,100016.00
2022-10-09T22:46:39.590Z,100011.00
2022-10-09T22:49:11.318Z,100003.00
2022-10-09T22:51:39.591Z,100008.00
2022-10-09T22:54:08.421Z,99988.00
2022-10-09T22:56:39.969Z,100006.00
2022-10-09T22:59:10.030Z,100003.00
2022-10-09T23:01:41.937Z,99995.00
2022-10-09T23:04:13.799Z,99995.00
2022-10-09T23:06:42.688Z,99998.00
2022-10-09T23:09:14.498Z,99986.00
2022-10-09T23:11:44.556Z,99993.00
2022-10-09T23:14:13.936Z,99902.00
2022-10-09T23:16:42.876Z,99979.00
2022-10-09T23:19:11.599Z,99972.00
2022-10-09T23:21:42.612Z,99968.00
2022-10-09T23:24:15.297Z,99977.00
2022-10-09T23:26:46.024Z,99977.00
2022-10-09T23:29:17.797Z,99960.00
2022-10-09T23:31:48.446Z,99952.00
2022-10-09T23:34:16.940Z,99933.00
2022-10-09T23:36:45.025Z,99891.00
2022-10-09T23:39:13.970Z,99956.00
2022-10-09T23:41:42.175Z,99956.00
2022-10-09T23:44:11.567Z,99963.00
2022-10-09T23:46:39.861Z,99960.00
2022-10-09T23:49:07.975Z,99931.00
2022-10-09T23:51:36.088Z,99947.00
2022-10-09T23:54:04.456Z,99948.00
2022-10-09T23:56:35.729Z,99956.00
2022-10-09T23:59:07.026Z,99921.00
